Time;durP1;ratioP1;P1;durP2;ratioP2;P2;SDS_P1;SDS_P2;PMS_P1;PMS_P2;Temp;Humidity;BMP_temperature;BMP_pressure;BME280_temperature;BME280_humidity;BME280_pressure;Samples;Min_cycle;Max_cycle;Signal;HPM_P1;HPM_P2
2023/07/15 00:01:20;;;;;;;;;15.00;14.00;27.30;51.40;;;;;;111415;1238;49019;-70
2023/07/15 00:03:49;;;;;;;;;14.25;13.00;27.30;51.50;;;;;;111502;1240;49774;-71
2023/07/15 00:06:17;;;;;;;;;15.00;14.00;27.30;51.70;;;;;;111546;1243;54081;-73
2023/07/15 00:08:45;;;;;;;;;13.00;13.00;27.30;51.70;;;;;;111244;1240;44191;-73
2023/07/15 00:11:17;;;;;;;;;14.00;13.25;27.30;51.90;;;;;;111340;1244;49321;-70
2023/07/15 00:13:44;;;;;;;;;14.25;13.00;27.30;51.80;;;;;;111446;1239;49731;-68
2023/07/15 00:16:11;;;;;;;;;14.25;13.00;27.20;51.80;;;;;;111586;1243;53896;-68
2023/07/15 00:18:38;;;;;;;;;13.25;12.25;27.20;51.80;;;;;;111338;1244;44726;-68
2023/07/15 00:21:20;;;;;;;;;15.33;14.33;27.20;52.30;;;;;;111361;1239;49590;-69
2023/07/15 00:23:49;;;;;;;;;15.25;14.25;27.20;51.80;;;;;;111456;1243;49372;-68
2023/07/15 00:26:16;;;;;;;;;15.25;14.50;27.20;51.90;;;;;;111508;1243;54458;-67
2023/07/15 00:28:43;;;;;;;;;13.75;13.25;27.20;51.90;;;;;;111313;1240;45131;-68
2023/07/15 00:31:13;;;;;;;;;15.00;14.75;27.20;51.90;;;;;;111424;1238;49628;-67
2023/07/15 00:33:41;;;;;;;;;13.00;12.00;27.20;52.00;;;;;;111406;1243;49650;-68
2023/07/15 00:36:09;;;;;;;;;13.25;12.50;27.10;52.00;;;;;;111626;1243;54133;-69
2023/07/15 00:38:36;;;;;;;;;14.75;13.00;27.10;52.00;;;;;;111341;1240;44604;-68
2023/07/15 00:41:17;;;;;;;;;13.00;12.00;27.10;52.00;;;;;;111329;1240;50280;-67
2023/07/15 00:43:58;;;;;;;;;18.75;16.25;27.10;52.10;;;;;;111392;1238;50420;-69
2023/07/15 00:46:50;;;;;;;;;14.25;12.75;27.10;52.10;;;;;;111408;1244;53988;-68
2023/07/15 00:49:22;;;;;;;;;13.50;12.75;27.00;52.60;;;;;;111361;1243;44787;-68
2023/07/15 00:52:13;;;;;;;;;14.00;12.33;27.00;51.70;;;;;;111349;1238;49038;-70
2023/07/15 00:54:48;;;;;;;;;16.00;14.00;27.00;52.20;;;;;;111576;1241;48962;-69
2023/07/15 00:57:16;;;;;;;;;15.00;15.00;27.00;52.70;;;;;;111410;1239;54455;-70
2023/07/15 00:59:44;;;;;;;;;13.75;12.75;27.00;52.20;;;;;;111221;1244;45710;-70
2023/07/15 01:02:13;;;;;;;;;14.25;13.25;27.00;52.20;;;;;;111363;1239;49655;-69
2023/07/15 01:04:40;;;;;;;;;15.00;14.25;27.00;52.20;;;;;;111295;1244;50481;-70
2023/07/15 01:07:07;;;;;;;;;14.00;13.50;27.00;52.30;;;;;;111358;1241;53894;-70
2023/07/15 01:09:35;;;;;;;;;14.50;13.25;26.90;52.30;;;;;;111368;1243;44363;-68
2023/07/15 01:12:04;;;;;;;;;14.00;13.00;26.90;52.30;;;;;;111345;1238;48886;-71
2023/07/15 01:14:31;;;;;;;;;14.00;13.00;26.90;52.30;;;;;;111752;1238;50148;-70
2023/07/15 01:16:58;;;;;;;;;13.00;12.25;26.90;52.40;;;;;;111341;1243;54500;-71
2023/07/15 01:19:27;;;;;;;;;13.00;13.00;26.90;52.40;;;;;;111335;1243;45225;-69
2023/07/15 01:21:54;;;;;;;;;14.33;12.67;26.90;52.50;;;;;;111336;1244;49396;-71
2023/07/15 01:24:22;;;;;;;;;13.33;12.33;26.90;52.40;;;;;;111687;1240;49361;-68
2023/07/15 01:27:02;;;;;;;;;14.25;13.50;26.80;52.30;;;;;;111501;1243;54405;-69
2023/07/15 01:29:30;;;;;;;;;14.25;13.25;26.80;52.30;;;;;;111447;1243;44902;-70
2023/07/15 01:31:57;;;;;;;;;16.00;13.00;26.80;52.30;;;;;;111369;1240;49240;-68
2023/07/15 01:34:24;;;;;;;;;15.00;14.50;26.80;52.20;;;;;;111664;1238;50330;-67
2023/07/15 01:36:51;;;;;;;;;13.00;12.25;26.80;52.20;;;;;;111349;1238;53399;-68
2023/07/15 01:39:18;;;;;;;;;14.50;12.00;26.80;52.40;;;;;;111315;1243;44874;-69
2023/07/15 01:41:45;;;;;;;;;14.75;14.00;26.80;52.40;;;;;;111313;1238;49980;-68
2023/07/15 01:44:12;;;;;;;;;13.33;13.00;26.80;52.30;;;;;;111629;1243;50067;-69
2023/07/15 01:46:40;;;;;;;;;14.00;14.00;26.80;52.30;;;;;;111398;1238;53117;-69
2023/07/15 01:49:07;;;;;;;;;14.50;13.75;26.80;52.30;;;;;;111377;1238;44606;-69
2023/07/15 01:51:35;;;;;;;;;12.00;11.00;26.80;52.40;;;;;;111352;1243;49334;-68
2023/07/15 01:54:02;;;;;;;;;15.25;14.00;26.70;52.30;;;;;;111687;1240;49071;-69
2023/07/15 01:56:30;;;;;;;;;14.75;13.50;26.70;52.30;;;;;;111380;1238;53933;-69
2023/07/15 01:58:57;;;;;;;;;15.00;13.00;26.70;52.10;;;;;;111369;1238;44656;-68
2023/07/15 02:01:25;;;;;;;;;14.00;13.00;26.70;52.20;;;;;;111368;1240;49498;-69
2023/07/15 02:03:52;;;;;;;;;14.00;13.00;26.70;52.40;;;;;;111531;1238;50257;-69
2023/07/15 02:06:18;;;;;;;;;13.75;13.25;26.70;52.20;;;;;;111442;1243;54275;-67
2023/07/15 02:08:45;;;;;;;;;12.25;11.50;26.70;52.20;;;;;;111306;1240;44116;-75
2023/07/15 02:11:13;;;;;;;;;14.50;12.25;26.70;52.20;;;;;;111324;1243;49935;-68
2023/07/15 02:13:40;;;;;;;;;14.00;13.00;26.70;52.30;;;;;;111440;1238;48896;-69
2023/07/15 02:16:07;;;;;;;;;16.00;13.25;26.60;52.30;;;;;;111716;1238;55075;-68
2023/07/15 02:18:34;;;;;;;;;13.50;12.75;26.60;52.30;;;;;;111232;1243;45312;-69
2023/07/15 02:21:01;;;;;;;;;13.00;12.00;26.60;52.30;;;;;;111293;1243;50497;-68
2023/07/15 02:23:29;;;;;;;;;12.00;11.00;26.60;52.40;;;;;;111422;1243;50233;-69
2023/07/15 02:25:56;;;;;;;;;13.33;12.00;26.60;52.40;;;;;;111654;1239;53867;-68
2023/07/15 02:28:26;;;;;;;;;13.75;12.75;26.60;52.50;;;;;;111317;1239;45488;-71
2023/07/15 02:30:54;;;;;;;;;14.25;13.25;26.60;52.40;;;;;;111334;1238;49653;-70
2023/07/15 02:33:23;;;;;;;;;12.00;12.00;26.50;52.40;;;;;;111437;1239;50357;-70
2023/07/15 02:35:50;;;;;;;;;15.00;14.00;26.50;52.50;;;;;;111640;1240;54569;-71
2023/07/15 02:38:17;;;;;;;;;14.75;13.25;26.50;52.60;;;;;;111312;1239;44808;-70
2023/07/15 02:40:47;;;;;;;;;13.67;12.67;26.50;52.80;;;;;;111331;1240;49453;-70
2023/07/15 02:43:14;;;;;;;;;13.33;13.33;26.50;52.80;;;;;;111429;1239;49155;-71
2023/07/15 02:45:41;;;;;;;;;15.75;14.75;26.50;52.70;;;;;;111531;1240;53242;-70
2023/07/15 02:48:08;;;;;;;;;13.75;13.00;26.50;52.80;;;;;;111349;1238;44000;-68
2023/07/15 02:50:34;;;;;;;;;14.75;13.25;26.50;52.80;;;;;;111347;1238;49470;-70
2023/07/15 02:53:03;;;;;;;;;19.00;16.25;26.50;52.80;;;;;;111360;1239;48881;-68
2023/07/15 02:55:30;;;;;;;;;13.25;13.00;26.50;52.90;;;;;;111646;1238;54232;-70
2023/07/15 02:57:57;;;;;;;;;13.00;12.50;26.50;53.00;;;;;;111343;1242;45084;-69
2023/07/15 03:00:24;;;;;;;;;13.00;12.00;26.50;53.20;;;;;;111355;1240;48814;-69
2023/07/15 03:02:51;;;;;;;;;14.00;12.00;26.50;53.00;;;;;;111324;1239;49781;-73
2023/07/15 03:05:18;;;;;;;;;11.50;11.00;26.50;52.80;;;;;;111615;1243;53441;-69
2023/07/15 03:07:48;;;;;;;;;14.00;13.25;26.50;52.90;;;;;;111351;1238;44853;-69
2023/07/15 03:10:15;;;;;;;;;13.00;12.25;26.50;53.00;;;;;;111307;1244;49363;-66
2023/07/15 03:12:45;;;;;;;;;15.00;12.67;26.50;52.80;;;;;;111243;1239;50398;-67
2023/07/15 03:15:12;;;;;;;;;13.00;12.25;26.50;52.70;;;;;;111275;1243;53907;-68
2023/07/15 03:17:39;;;;;;;;;13.00;12.50;26.50;52.70;;;;;;111241;1243;45099;-69
2023/07/15 03:20:30;;;;;;;;;15.33;14.00;26.50;52.70;;;;;;111374;1243;50228;-68
2023/07/15 03:22:55;;;;;;;;;11.67;11.00;26.50;52.70;;;;;;111339;1243;50129;-68
2023/07/15 03:25:22;;;;;;;;;11.00;10.75;26.60;52.80;;;;;;111781;1238;54290;-68
2023/07/15 03:27:50;;;;;;;;;12.50;11.50;26.60;52.80;;;;;;111395;1239;44689;-68
2023/07/15 03:30:18;;;;;;;;;11.33;10.67;26.60;52.70;;;;;;111366;1243;49103;-71
2023/07/15 03:32:45;;;;;;;;;13.00;12.00;26.60;52.70;;;;;;111388;1244;49232;-67
2023/07/15 03:35:13;;;;;;;;;15.33;13.00;26.60;52.70;;;;;;111614;1240;53977;-66
2023/07/15 03:37:43;;;;;;;;;14.25;13.00;26.60;52.70;;;;;;111340;1243;44813;-65
2023/07/15 03:40:11;;;;;;;;;13.00;12.00;26.60;52.60;;;;;;111263;1240;49744;-65
2023/07/15 03:42:39;;;;;;;;;15.00;13.00;26.70;52.70;;;;;;111294;1240;49025;-67
2023/07/15 03:45:07;;;;;;;;;12.25;11.00;26.60;52.80;;;;;;111630;1243;54174;-65
2023/07/15 03:47:34;;;;;;;;;15.67;13.67;26.70;52.70;;;;;;111417;1239;46169;-66
2023/07/15 03:50:02;;;;;;;;;11.75;11.25;26.70;52.60;;;;;;111334;1241;49829;-66
2023/07/15 03:52:30;;;;;;;;;14.00;13.33;26.70;52.60;;;;;;111136;1243;49517;-67
2023/07/15 03:54:58;;;;;;;;;13.25;12.00;26.70;52.70;;;;;;111307;1243;54160;-64
2023/07/15 03:57:26;;;;;;;;;13.75;13.00;26.70;52.90;;;;;;111261;1240;44435;-67
2023/07/15 03:59:52;;;;;;;;;11.00;10.00;26.70;52.80;;;;;;111191;1243;49858;-67
2023/07/15 04:02:19;;;;;;;;;12.00;11.00;26.70;52.70;;;;;;111227;1238;49569;-69
2023/07/15 04:04:46;;;;;;;;;12.00;11.00;26.70;52.90;;;;;;111628;1238;54768;-65
2023/07/15 04:07:13;;;;;;;;;10.67;10.33;26.70;53.20;;;;;;111367;1240;45178;-65
2023/07/15 04:09:40;;;;;;;;;11.00;10.33;26.70;52.70;;;;;;111331;1238;50876;-66
2023/07/15 04:12:08;;;;;;;;;11.33;10.67;26.70;52.60;;;;;;111362;1240;49001;-69
2023/07/15 04:14:36;;;;;;;;;13.50;12.50;26.70;52.80;;;;;;111303;1243;53567;-68
2023/07/15 04:17:03;;;;;;;;;12.00;11.00;26.70;52.60;;;;;;111320;1239;45195;-70
2023/07/15 04:19:30;;;;;;;;;12.75;12.00;26.70;52.60;;;;;;111328;1244;49888;-70
2023/07/15 04:21:57;;;;;;;;;12.00;11.00;26.70;52.60;;;;;;111448;1243;49720;-73
2023/07/15 04:24:24;;;;;;;;;12.50;11.75;26.70;52.80;;;;;;111673;1238;54016;-67
2023/07/15 04:26:51;;;;;;;;;13.75;13.50;26.80;53.00;;;;;;111331;1243;44485;-69
2023/07/15 04:29:18;;;;;;;;;11.50;10.75;26.80;52.80;;;;;;111285;1244;49557;-67
2023/07/15 04:31:47;;;;;;;;;12.25;11.75;26.80;53.00;;;;;;111271;1243;49419;-68
2023/07/15 04:34:14;;;;;;;;;14.00;12.00;26.80;53.00;;;;;;111250;1243;54436;-68
2023/07/15 04:36:41;;;;;;;;;14.00;13.00;26.80;53.00;;;;;;111324;1243;44720;-64
2023/07/15 04:39:08;;;;;;;;;14.00;13.25;26.80;53.00;;;;;;111236;1243;48948;-65
2023/07/15 04:41:35;;;;;;;;;15.00;14.75;26.80;53.00;;;;;;111199;1243;49601;-64
2023/07/15 04:44:05;;;;;;;;;15.00;13.50;26.80;53.10;;;;;;111301;1238;55107;-65
2023/07/15 04:46:32;;;;;;;;;12.67;12.33;26.80;53.10;;;;;;111249;1243;44216;-65
2023/07/15 04:48:59;;;;;;;;;12.75;12.00;26.80;52.90;;;;;;111322;1240;49851;-66
2023/07/15 04:51:26;;;;;;;;;13.00;12.50;26.80;52.90;;;;;;111367;1240;49936;-66
2023/07/15 04:53:53;;;;;;;;;14.00;11.50;26.80;52.90;;;;;;111563;1238;53139;-65
2023/07/15 04:56:20;;;;;;;;;13.50;11.50;26.80;52.80;;;;;;110908;1239;619364;-65
2023/07/15 04:58:48;;;;;;;;;14.00;11.75;26.80;53.40;;;;;;111184;1243;49448;-65
2023/07/15 05:01:15;;;;;;;;;13.75;12.25;26.90;52.80;;;;;;111219;1238;49816;-67
2023/07/15 05:03:42;;;;;;;;;12.33;12.00;26.90;53.10;;;;;;111178;1243;53120;-66
2023/07/15 05:06:09;;;;;;;;;13.00;12.00;26.90;52.90;;;;;;111355;1240;45351;-66
2023/07/15 05:08:37;;;;;;;;;13.25;13.00;26.90;52.80;;;;;;111238;1238;49294;-67
2023/07/15 05:11:04;;;;;;;;;13.00;12.33;26.90;52.80;;;;;;111280;1240;49675;-65
2023/07/15 05:13:31;;;;;;;;;12.00;11.00;26.90;52.80;;;;;;111245;1243;53995;-65
2023/07/15 05:15:58;;;;;;;;;12.00;12.00;26.90;52.80;;;;;;111258;1243;44986;-66
2023/07/15 05:18:25;;;;;;;;;12.50;11.50;26.90;52.80;;;;;;111252;1238;50473;-66
2023/07/15 05:20:52;;;;;;;;;13.00;11.75;26.90;52.80;;;;;;111294;1240;49544;-64
2023/07/15 05:23:20;;;;;;;;;14.00;12.75;26.90;52.80;;;;;;111249;1243;53636;-67
2023/07/15 05:25:47;;;;;;;;;12.25;11.25;26.90;52.80;;;;;;111273;1244;44544;-65
2023/07/15 05:28:14;;;;;;;;;11.50;11.00;26.90;52.80;;;;;;111332;1238;49743;-65
2023/07/15 05:30:41;;;;;;;;;11.00;10.75;26.90;52.80;;;;;;111314;1241;49569;-65
2023/07/15 05:33:09;;;;;;;;;13.25;13.00;26.90;52.80;;;;;;111319;1243;54098;-64
2023/07/15 05:35:36;;;;;;;;;13.25;12.00;26.90;53.00;;;;;;111319;1241;44520;-69
2023/07/15 05:38:03;;;;;;;;;13.75;12.75;26.90;53.10;;;;;;111254;1240;50679;-67
2023/07/15 05:40:30;;;;;;;;;15.75;15.00;26.90;53.00;;;;;;111480;1243;49207;-69
2023/07/15 05:42:57;;;;;;;;;16.75;14.25;26.90;53.50;;;;;;111224;1244;54375;-69
2023/07/15 05:45:24;;;;;;;;;22.00;18.00;26.90;53.10;;;;;;111283;1238;44064;-72
2023/07/15 05:47:51;;;;;;;;;21.00;19.00;26.90;53.40;;;;;;111273;1243;48732;-72
2023/07/15 05:50:18;;;;;;;;;15.00;15.00;26.90;53.90;;;;;;111271;1240;49532;-72
2023/07/15 05:52:45;;;;;;;;;22.25;19.00;27.00;53.60;;;;;;111363;1243;54572;-65
2023/07/15 05:55:11;;;;;;;;;21.75;19.25;27.00;53.60;;;;;;111264;1241;44249;-65
2023/07/15 05:57:39;;;;;;;;;23.75;19.00;27.00;53.60;;;;;;111301;1241;50245;-66
2023/07/15 06:00:08;;;;;;;;;22.25;19.25;27.00;54.20;;;;;;111293;1243;49945;-66
2023/07/15 06:02:37;;;;;;;;;19.75;16.00;27.00;54.00;;;;;;111307;1244;53721;-67
2023/07/15 06:05:05;;;;;;;;;23.50;20.00;27.10;53.50;;;;;;111334;1238;44573;-66
2023/07/15 06:07:31;;;;;;;;;23.00;18.75;27.10;54.10;;;;;;111161;1241;49004;-67
2023/07/15 06:09:58;;;;;;;;;22.00;20.00;27.10;54.00;;;;;;111235;1243;49609;-68
2023/07/15 06:12:25;;;;;;;;;24.00;18.25;27.20;53.70;;;;;;111238;1239;53297;-66
2023/07/15 06:14:52;;;;;;;;;23.50;18.50;27.20;53.60;;;;;;111301;1243;44483;-66
2023/07/15 06:17:21;;;;;;;;;21.00;16.75;27.20;53.60;;;;;;111259;1241;49559;-67
2023/07/15 06:19:48;;;;;;;;;16.67;15.67;27.20;53.70;;;;;;111316;1238;49803;-67
2023/07/15 06:22:15;;;;;;;;;21.75;18.00;27.30;53.50;;;;;;111283;1238;54841;-68
2023/07/15 06:24:42;;;;;;;;;23.25;18.75;27.30;53.50;;;;;;111253;1240;45110;-66
2023/07/15 06:27:09;;;;;;;;;18.25;16.00;27.30;53.40;;;;;;111323;1240;49143;-66
2023/07/15 06:29:36;;;;;;;;;19.00;17.00;27.30;53.40;;;;;;111271;1244;50214;-67
2023/07/15 06:32:04;;;;;;;;;20.33;18.67;27.30;53.30;;;;;;111270;1241;53334;-68
2023/07/15 06:34:31;;;;;;;;;18.00;17.00;27.30;53.30;;;;;;111317;1240;44253;-67
2023/07/15 06:36:58;;;;;;;;;17.00;16.00;27.30;53.20;;;;;;111258;1244;49695;-66
2023/07/15 06:39:25;;;;;;;;;17.25;15.25;27.30;53.20;;;;;;111242;1243;49399;-67
2023/07/15 06:41:52;;;;;;;;;21.33;17.00;27.40;53.30;;;;;;111222;1240;53481;-66
2023/07/15 06:44:19;;;;;;;;;19.00;17.00;27.30;53.20;;;;;;111289;1240;44583;-67
2023/07/15 06:46:46;;;;;;;;;19.75;18.50;27.40;53.30;;;;;;111279;1239;49679;-67
2023/07/15 06:49:13;;;;;;;;;19.00;18.50;27.40;53.30;;;;;;111269;1243;50222;-66
2023/07/15 06:51:40;;;;;;;;;16.25;14.25;27.40;53.20;;;;;;111288;1238;53901;-67
2023/07/15 06:54:07;;;;;;;;;21.00;16.75;27.40;53.50;;;;;;111290;1244;44635;-67
2023/07/15 06:56:34;;;;;;;;;18.50;16.00;27.40;53.20;;;;;;111257;1244;49356;-67
2023/07/15 06:59:01;;;;;;;;;15.00;14.50;27.40;53.20;;;;;;111276;1240;49817;-67
2023/07/15 07:01:28;;;;;;;;;15.00;14.00;27.40;53.20;;;;;;111267;1243;53576;-66
2023/07/15 07:03:55;;;;;;;;;16.00;14.50;27.40;53.20;;;;;;111299;1243;44284;-67
2023/07/15 07:06:21;;;;;;;;;17.00;15.00;27.50;53.30;;;;;;111313;1244;49615;-67
2023/07/15 07:08:48;;;;;;;;;15.00;13.25;27.50;53.30;;;;;;111291;1243;49649;-68
2023/07/15 07:11:15;;;;;;;;;16.50;14.25;27.50;53.20;;;;;;111292;1243;54985;-66
2023/07/15 07:13:42;;;;;;;;;17.75;15.00;27.50;53.20;;;;;;111259;1244;45891;-67
2023/07/15 07:16:09;;;;;;;;;17.00;15.50;27.50;53.20;;;;;;111282;1241;48838;-68
2023/07/15 07:18:36;;;;;;;;;20.25;17.25;27.50;53.20;;;;;;111351;1243;49018;-67
2023/07/15 07:21:03;;;;;;;;;16.50;16.00;27.60;53.50;;;;;;111256;1238;54888;-66
2023/07/15 07:23:30;;;;;;;;;16.50;14.25;27.60;53.30;;;;;;111269;1243;45417;-68
2023/07/15 07:25:57;;;;;;;;;17.00;14.00;27.60;53.30;;;;;;111331;1240;49727;-67
2023/07/15 07:28:44;;;;;;;;;21.50;17.00;27.60;53.50;;;;;;111290;1240;50503;-65
2023/07/15 07:31:12;;;;;;;;;13.00;12.50;27.60;53.20;;;;;;111273;1238;53399;-66
2023/07/15 07:33:41;;;;;;;;;17.00;16.00;27.60;53.30;;;;;;111281;1243;45113;-67
2023/07/15 07:36:08;;;;;;;;;15.25;12.75;27.60;53.30;;;;;;111244;1240;49535;-67
2023/07/15 07:38:35;;;;;;;;;17.25;14.25;27.70;53.50;;;;;;111254;1240;50702;-68
2023/07/15 07:41:10;;;;;;;;;17.67;16.33;27.70;53.30;;;;;;111300;1239;53644;-67
2023/07/15 07:43:38;;;;;;;;;15.50;13.50;27.70;53.30;;;;;;111255;1243;44243;-68
2023/07/15 07:46:08;;;;;;;;;13.33;11.33;27.70;53.40;;;;;;111641;1244;49308;-67
2023/07/15 07:48:35;;;;;;;;;16.33;15.00;27.70;52.90;;;;;;111257;1243;50171;-72
2023/07/15 07:51:02;;;;;;;;;17.50;15.50;27.80;53.30;;;;;;111270;1244;54550;-67
2023/07/15 07:53:29;;;;;;;;;17.00;14.00;27.80;53.30;;;;;;111147;1243;45659;-67
2023/07/15 07:55:57;;;;;;;;;14.50;13.25;27.80;53.30;;;;;;111251;1243;49762;-67
2023/07/15 07:58:24;;;;;;;;;15.25;14.00;27.80;53.30;;;;;;111256;1243;50145;-67
2023/07/15 08:00:51;;;;;;;;;16.50;13.00;27.90;53.30;;;;;;111273;1238;54075;-68
2023/07/15 08:03:18;;;;;;;;;13.00;11.75;27.90;53.30;;;;;;111275;1243;45787;-67
2023/07/15 08:05:47;;;;;;;;;14.50;13.00;27.90;53.30;;;;;;111295;1240;49391;-67
2023/07/15 08:08:15;;;;;;;;;14.00;12.25;27.90;53.40;;;;;;111311;1238;50556;-68
2023/07/15 08:10:42;;;;;;;;;15.00;13.25;28.00;53.30;;;;;;111261;1240;54852;-66
2023/07/15 08:13:09;;;;;;;;;17.00;13.00;28.00;53.30;;;;;;111282;1241;45001;-66
2023/07/15 08:15:37;;;;;;;;;13.00;11.75;28.00;53.30;;;;;;111296;1243;49539;-67
2023/07/15 08:18:05;;;;;;;;;12.50;11.75;28.10;53.30;;;;;;111188;1244;49176;-67
2023/07/15 08:20:33;;;;;;;;;14.67;12.33;28.10;53.30;;;;;;111312;1243;53128;-67
2023/07/15 08:23:00;;;;;;;;;15.25;12.75;28.10;53.30;;;;;;111314;1240;44859;-67
2023/07/15 08:25:27;;;;;;;;;14.00;13.25;28.10;53.20;;;;;;111262;1243;49179;-67
2023/07/15 08:27:55;;;;;;;;;12.00;11.00;28.20;53.30;;;;;;111263;1238;48984;-68
2023/07/15 08:30:22;;;;;;;;;13.25;11.25;28.20;53.20;;;;;;111300;1238;53465;-67
2023/07/15 08:32:49;;;;;;;;;15.75;11.75;28.30;53.30;;;;;;111223;1244;45027;-67
2023/07/15 08:35:16;;;;;;;;;14.25;11.00;28.20;53.10;;;;;;111259;1238;48915;-67
2023/07/15 08:37:43;;;;;;;;;11.25;10.00;28.30;53.20;;;;;;111230;1243;49812;-66
2023/07/15 08:40:11;;;;;;;;;12.00;11.50;28.30;53.20;;;;;;111252;1243;53673;-68
2023/07/15 08:42:39;;;;;;;;;14.75;11.25;28.40;53.20;;;;;;111323;1243;44794;-66
2023/07/15 08:45:07;;;;;;;;;14.25;12.00;28.40;53.20;;;;;;111255;1240;49259;-67
2023/07/15 08:47:35;;;;;;;;;10.50;10.00;28.40;53.10;;;;;;111219;1238;50179;-66
2023/07/15 08:50:05;;;;;;;;;14.25;12.00;28.50;53.20;;;;;;111209;1243;53730;-68
2023/07/15 08:52:33;;;;;;;;;14.33;11.33;28.50;53.10;;;;;;111245;1238;44440;-69
2023/07/15 08:55:00;;;;;;;;;10.67;10.00;28.50;53.10;;;;;;111376;1243;48797;-68
2023/07/15 08:57:27;;;;;;;;;14.75;11.00;28.60;53.20;;;;;;111302;1240;50442;-67
2023/07/15 08:59:56;;;;;;;;;11.75;11.00;28.60;53.10;;;;;;111233;1241;54127;-67
2023/07/15 09:02:23;;;;;;;;;12.00;11.00;28.60;53.00;;;;;;111226;1240;45073;-67
2023/07/15 09:04:50;;;;;;;;;12.00;10.75;28.70;53.00;;;;;;111291;1244;49211;-67
2023/07/15 09:07:27;;;;;;;;;14.67;12.00;28.70;53.00;;;;;;111366;1243;49978;-67
2023/07/15 09:09:54;;;;;;;;;11.00;10.50;28.70;53.00;;;;;;111277;1240;54128;-67
2023/07/15 09:12:23;;;;;;;;;13.00;12.25;28.80;53.00;;;;;;111359;1240;44417;-67
2023/07/15 09:14:51;;;;;;;;;12.25;11.25;28.80;52.90;;;;;;111304;1240;49432;-68
2023/07/15 09:17:20;;;;;;;;;11.00;10.00;28.90;53.10;;;;;;111271;1239;50474;-68
2023/07/15 09:19:48;;;;;;;;;9.67;9.00;28.90;52.90;;;;;;111274;1240;55268;-68
2023/07/15 09:22:15;;;;;;;;;10.25;9.00;29.00;52.90;;;;;;111334;1243;44476;-68
2023/07/15 09:24:43;;;;;;;;;11.75;11.25;29.00;52.90;;;;;;111285;1240;49000;-68
2023/07/15 09:27:10;;;;;;;;;11.00;10.67;29.00;53.00;;;;;;111231;1240;49275;-67
2023/07/15 09:29:37;;;;;;;;;12.67;11.67;29.00;52.80;;;;;;111262;1240;53682;-67
2023/07/15 09:32:07;;;;;;;;;11.00;10.75;29.10;52.80;;;;;;111265;1240;45187;-68
2023/07/15 09:34:40;;;;;;;;;14.00;12.00;29.10;52.80;;;;;;111357;1240;49551;-67
2023/07/15 09:37:07;;;;;;;;;12.75;10.00;29.10;52.70;;;;;;111301;1238;50029;-67
2023/07/15 09:39:34;;;;;;;;;11.00;10.00;29.20;52.90;;;;;;111289;1238;53736;-67
2023/07/15 09:42:04;;;;;;;;;10.00;9.33;29.20;52.60;;;;;;111257;1243;44667;-66
2023/07/15 09:44:39;;;;;;;;;9.00;8.67;29.30;52.60;;;;;;111297;1239;48758;-69
2023/07/15 09:47:07;;;;;;;;;12.00;11.00;29.30;52.60;;;;;;111196;1243;49392;-70
2023/07/15 09:49:35;;;;;;;;;10.00;9.00;29.30;52.50;;;;;;111284;1242;54885;-68
2023/07/15 09:52:04;;;;;;;;;10.00;9.00;29.40;52.50;;;;;;111281;1240;44966;-67
2023/07/15 09:54:32;;;;;;;;;8.00;8.00;29.40;52.50;;;;;;111341;1243;49202;-68
2023/07/15 09:57:03;;;;;;;;;11.00;10.00;29.40;52.60;;;;;;111326;1240;50794;-67
2023/07/15 09:59:46;;;;;;;;;10.25;8.00;29.50;52.40;;;;;;111282;1240;53484;-67
2023/07/15 10:02:44;;;;;;;;;9.00;8.75;29.50;52.40;;;;;;111327;1244;45181;-68
2023/07/15 10:05:15;;;;;;;;;10.00;9.00;29.50;52.30;;;;;;111360;1240;49121;-67
2023/07/15 10:07:42;;;;;;;;;11.00;10.50;29.60;52.30;;;;;;111278;1244;48687;-68
2023/07/15 10:10:09;;;;;;;;;10.00;9.00;29.60;52.20;;;;;;111244;1240;53996;-68
2023/07/15 10:12:37;;;;;;;;;9.00;8.33;29.60;52.40;;;;;;111267;1240;44344;-67
2023/07/15 10:15:05;;;;;;;;;9.25;9.00;29.60;52.20;;;;;;111319;1238;49268;-67
2023/07/15 10:17:36;;;;;;;;;8.00;8.00;29.70;52.20;;;;;;111312;1243;50079;-67
2023/07/15 10:20:10;;;;;;;;;10.25;9.25;29.70;52.10;;;;;;111314;1243;54348;-67
2023/07/15 10:22:38;;;;;;;;;9.50;9.00;29.80;52.20;;;;;;111380;1240;44368;-67
2023/07/15 10:25:10;;;;;;;;;10.00;9.00;29.80;52.30;;;;;;111202;1241;48934;-67
2023/07/15 10:27:38;;;;;;;;;10.25;9.00;29.80;52.10;;;;;;111240;1243;48748;-68
2023/07/15 10:30:16;;;;;;;;;9.75;9.00;29.80;52.20;;;;;;111342;1238;54375;-68
2023/07/15 10:32:58;;;;;;;;;9.67;8.67;29.90;52.20;;;;;;111332;1243;44708;-68
2023/07/15 10:35:29;;;;;;;;;10.50;9.25;29.90;52.00;;;;;;111335;1238;49520;-68
2023/07/15 10:38:01;;;;;;;;;8.75;8.00;29.90;51.90;;;;;;111358;1243;49326;-67
2023/07/15 10:40:46;;;;;;;;;7.75;7.25;29.90;51.50;;;;;;111370;1243;53480;-67
2023/07/15 10:43:21;;;;;;;;;10.00;9.33;30.00;51.90;;;;;;111336;1243;44013;-67
2023/07/15 10:45:52;;;;;;;;;9.00;8.25;30.00;52.00;;;;;;111419;1243;49203;-67
2023/07/15 10:48:21;;;;;;;;;9.00;8.00;30.10;51.90;;;;;;111394;1238;49776;-68
2023/07/15 10:50:55;;;;;;;;;9.00;7.00;30.10;51.80;;;;;;111407;1244;53782;-67
2023/07/15 10:53:26;;;;;;;;;9.75;8.00;30.10;51.80;;;;;;111401;1243;45009;-67
2023/07/15 10:56:07;;;;;;;;;8.00;7.25;30.10;51.90;;;;;;111373;1243;49758;-67
2023/07/15 10:58:34;;;;;;;;;12.00;10.50;30.20;51.70;;;;;;111330;1240;49031;-69
2023/07/15 11:01:07;;;;;;;;;6.00;5.50;30.20;51.80;;;;;;111366;1243;54099;-67
2023/07/15 11:03:39;;;;;;;;;9.00;8.25;30.20;51.70;;;;;;111354;1243;44678;-68
2023/07/15 11:06:06;;;;;;;;;7.25;6.75;30.20;51.60;;;;;;111602;1243;49445;-67
2023/07/15 11:08:33;;;;;;;;;8.00;7.00;30.20;51.50;;;;;;111282;1240;49407;-66
2023/07/15 11:11:01;;;;;;;;;9.00;8.00;30.30;51.50;;;;;;111174;1244;54743;-67
2023/07/15 11:13:29;;;;;;;;;8.50;7.25;30.30;51.50;;;;;;111239;1244;44206;-67
2023/07/15 11:15:57;;;;;;;;;7.00;6.50;30.30;51.50;;;;;;111322;1238;49265;-68
2023/07/15 11:18:26;;;;;;;;;9.00;8.00;30.30;51.50;;;;;;111343;1238;50674;-67
2023/07/15 11:20:54;;;;;;;;;7.25;6.25;30.40;51.50;;;;;;111288;1245;54415;-67
2023/07/15 11:23:21;;;;;;;;;10.00;8.00;30.40;51.50;;;;;;111272;1243;45461;-67
2023/07/15 11:25:49;;;;;;;;;7.00;6.00;30.40;51.50;;;;;;111264;1239;49012;-68
2023/07/15 11:28:19;;;;;;;;;7.00;6.00;30.40;51.50;;;;;;111254;1239;48918;-67
2023/07/15 11:30:47;;;;;;;;;8.75;8.00;30.40;51.40;;;;;;111271;1240;53712;-68
2023/07/15 11:33:15;;;;;;;;;7.25;6.75;30.40;51.40;;;;;;111261;1238;45054;-67
2023/07/15 11:35:44;;;;;;;;;8.00;7.00;30.40;51.40;;;;;;111335;1244;48833;-67
2023/07/15 11:38:11;;;;;;;;;7.00;7.00;30.40;51.40;;;;;;111252;1240;49070;-67
2023/07/15 11:40:58;;;;;;;;;9.00;7.00;30.50;51.60;;;;;;111291;1238;53287;-67
2023/07/15 11:43:27;;;;;;;;;7.00;6.00;30.50;51.40;;;;;;111357;1239;44265;-67
2023/07/15 11:45:56;;;;;;;;;7.75;7.25;30.50;51.40;;;;;;111328;1240;49108;-67
2023/07/15 11:48:25;;;;;;;;;8.50;8.00;30.50;51.30;;;;;;111286;1243;50100;-67
2023/07/15 11:51:05;;;;;;;;;7.00;6.00;30.50;51.30;;;;;;111304;1243;54091;-67
2023/07/15 11:53:34;;;;;;;;;8.67;8.00;30.50;51.20;;;;;;111293;1242;44543;-67
2023/07/15 11:56:02;;;;;;;;;10.00;8.50;30.50;51.00;;;;;;111339;1243;48527;-67
2023/07/15 11:58:55;;;;;;;;;8.25;6.25;30.60;51.40;;;;;;111241;1244;49006;-66
2023/07/15 12:01:24;;;;;;;;;8.00;7.00;30.50;51.20;;;;;;111231;1243;54300;-67
2023/07/15 12:03:52;;;;;;;;;7.00;7.00;30.60;51.40;;;;;;111272;1243;45326;-67
2023/07/15 12:06:21;;;;;;;;;7.00;6.75;30.60;51.20;;;;;;111272;1243;48947;-67
2023/07/15 12:09:07;;;;;;;;;7.00;6.00;30.60;51.40;;;;;;111238;1243;50429;-68
2023/07/15 12:11:35;;;;;;;;;9.00;8.00;30.60;51.20;;;;;;111289;1240;53730;-66
2023/07/15 12:14:04;;;;;;;;;8.25;7.00;30.60;51.20;;;;;;111305;1244;44871;-68
2023/07/15 12:16:34;;;;;;;;;7.25;7.25;30.60;51.40;;;;;;111286;1240;48644;-67
2023/07/15 12:19:01;;;;;;;;;9.00;8.00;30.60;51.20;;;;;;111324;1243;50256;-68
2023/07/15 12:21:28;;;;;;;;;8.25;6.75;30.60;51.10;;;;;;111271;1243;53670;-67
2023/07/15 12:23:55;;;;;;;;;9.50;8.75;30.60;51.10;;;;;;111268;1243;44328;-67
2023/07/15 12:26:23;;;;;;;;;8.00;7.75;30.60;51.10;;;;;;111288;1243;49580;-67
2023/07/15 12:28:51;;;;;;;;;7.25;6.00;30.60;51.10;;;;;;111293;1238;49973;-68